aviador You're here:

KEQY Decoded Metar

MONROE in NC, USA
Report Time2018-01-18 10:53:00
UTC Time2018-01-18 11:42:24
Flight Rules vfr VFR
Wind260° at 06 kt
W.Decomp.*RWY 23: 4.9 kt HW 3.5 kt RCW
W.Rank260° ranks 12
Current wind is below 260° avg. (6.5)
Visibility9999 m
Phenomena:N/A
Clouds:N/A
Expected CloudBase > 400 ft AGL from Temp-Dew spread
CeilingNone
Temp-12°C (ISA -26)
Dew Point-13°C (92% RH)
AAT-17.4°C
QNH1025 hPa
Density Alt-2,897 ft
Elevation696 ft
Report Wrong Elevation
Raw Report
METAR KEQY 181053Z AUTO 26006KT 9SM CLR M12/M13 A3028 RMK AO2 SLP287
T11171128 $=

Extra information for KEQY:More info

Metar Taf Metar & Taf Last 4 Metars F.Rules Stats Wind Profile Meteogram Temp Stats Airport Information Weather charts Add Link Nearby VenuesMetar ALERT Operation Metar Decoded Social comments

AIRNAV info for KEQY